GCFVGCLP

Guest
Details From GCFV - Fuerteventura
To GCLP - Gran Canaria
Flight Number -
Tags generated
Created
Modified
Stats Distance 87 nm / 161 km
Max Altitude 300 ft / 91 m
Waypoints 3
Social Downloads 8
Likes 0
Share

Download

Looking for another format? Having issues loading an existing format? Contact us
Advertisement - Login to hide

Notes

Basic altitude profile: - Ascent Rate: 2500ft/min - Ascent Speed: 250kts - Cruise Altitude: 35000ft - Cruise Speed: 420kts - Descent Rate: 1500ft/min - Descent Speed: 250kts Options: - Use NATs: yes - Use PACOTS: yes - Use low airways: yes - Use high airways: yes

Route

GCFV FTV GCLP

ID Type Via Altitude (ft/m) Position (lat/lon) Dist (leg/tot) Name
O GCFV APT - 0 / 0 28.44788 / -13.86489 - / 0 nm Fuerteventura
FTV VOR - 300 / 91 28.43078 / -13.86450 1 / 1 nm FUERTEVENTURA VOR-DME
O GCLP APT - 0 / 0 27.93154 / -15.38559 85 / 86 nm Gran Canaria

Altitude Profile

Advertisement - Login to hide

GCFV

Details ICAO GCFV (FUE)
Name Fuerteventura
Region Canary Islands
Timezone Atlantic/Canary (UTC+0.0)
Stats Elevation 83 ft / 25 m (AMSL)
Location 28.448200° -13.863900°
Runways 1
Magnetic Variation 3.772° W

METAR

GCFV 251030Z 03016KT 9999 FEW025 23/15 Q1024

Decode

TAF

TAF TAF GCFV 250800Z 2509/2609 04015KT 9999 FEW030 TX24/2514Z TN20/2607Z

Decode

Departure Runways

ID Width Length Bearing (true/mag) Surface Threshold Overrun Markings Lighting
01 148 ft / 45 m 11,185 ft / 3,409 m 1.66° / 5.43° ASPHALT 3,274 ft / 998 m 0 ft / 0 m PREC-APP CENTERLINE EDGE THRESHOLD CALVERT-ILS TDZ REIL-OMNI
19 148 ft / 45 m 11,185 ft / 3,409 m 181.66° / 185.43° ASPHALT 1,506 ft / 459 m 0 ft / 0 m PREC-APP CENTERLINE EDGE THRESHOLD CALVERT-ILS TDZ REIL-OMNI

GCLP

Details ICAO GCLP (LPA)
Name Gran Canaria-Las Palmas Intl
Region Canary Islands
Timezone Atlantic/Canary (UTC+0.0)
Stats Elevation 78 ft / 24 m (AMSL)
Location 27.931600° -15.385600°
Runways 2
Magnetic Variation 4.355° W

METAR

GCLP 251030Z 03022KT 9999 FEW030 24/15 Q1024 NOSIG

Decode

TAF

TAF GCLP 250800Z 2509/2609 02018KT 9999 FEW030 TX25/2514Z TN20/2607Z= TAF KDYS 250800Z 2508/2614 14012KT 9999 SCT050 QNH2983INS BECMG 2511/2512 18009KT 2400 BR SCT006 510142 QNH2985INS BECMG 2514/2515 19010G15KT 4800 BR SKC 510062 QNH2988INS BECMG 2517/2518 VRB06KT 9999 NSW BKN030 510143 QNH2980INS BECMG 2609/2610 01009KT 8000 -RA OVC007 510072 QNH2990INS TEMPO 2609/2612 20020G25KT 8000 -TSRA OVC007CB TX26/2521Z TN11/2608Z

Decode

Destination Runways

ID Width Length Bearing (true/mag) Surface Threshold Overrun Markings Lighting
03L 148 ft / 45 m 10,201 ft / 3,109 m 21.35° / 25.70° ASPHALT 0 ft / 0 m 656 ft / 200 m PREC-APP CENTERLINE EDGE THRESHOLD ALSF-I REIL-OMNI
03R 148 ft / 45 m 10,180 ft / 3,103 m 21.32° / 25.68° ASPHALT 0 ft / 0 m 656 ft / 200 m PREC-APP CENTERLINE EDGE THRESHOLD ALSF-I REIL-OMNI
21L 148 ft / 45 m 10,180 ft / 3,103 m 201.33° / 205.68° ASPHALT 0 ft / 0 m 666 ft / 203 m PREC-APP CENTERLINE EDGE THRESHOLD MALS REIL-OMNI
21R 148 ft / 45 m 10,201 ft / 3,109 m 201.35° / 205.71° ASPHALT 0 ft / 0 m 738 ft / 225 m PREC-APP CENTERLINE EDGE THRESHOLD MALS REIL-OMNI

Approach Navaids

Runway Type Ident Frequency Range Bearing (true/mag) Slope Elevation
03L DME ILP 109.90 MHz 18 nm / 33 km - - 102 ft / 31 m (AMSL)
03L LOC-ILS ILP 109.90 MHz 18 nm / 33 km 21.33° / 25.69 ° - 77 ft / 23 m (AMSL)
03L GS ILP 109.90 MHz 10 nm / 19 km 21.66° / 26.02 ° 3.00° 102 ft / 31 m (AMSL)
21R LOC-ILS RLP 110.70 MHz 18 nm / 33 km 201.32° / 205.68 ° - 77 ft / 23 m (AMSL)
21R GS RLP 110.70 MHz 10 nm / 19 km 201.66° / 206.02 ° 3.00° 77 ft / 23 m (AMSL)
21R DME RLP 110.70 MHz 18 nm / 33 km - - 57 ft / 17 m (AMSL)

Popular Alternatives